sensor_id;sensor_type;location;lat;lon;timestamp;temperature;humidity
27567;DHT22;15006;48.584;9.186;2022-09-09T00:02:16;10.40;90.60
27567;DHT22;15006;48.584;9.186;2022-09-09T00:04:57;10.40;90.50
27567;DHT22;15006;48.584;9.186;2022-09-09T00:07:51;10.40;90.50
27567;DHT22;15006;48.584;9.186;2022-09-09T00:21:14;10.40;91.00
27567;DHT22;15006;48.584;9.186;2022-09-09T00:23:49;10.40;91.30
27567;DHT22;15006;48.584;9.186;2022-09-09T00:32:15;10.50;91.60
27567;DHT22;15006;48.584;9.186;2022-09-09T00:34:56;10.50;91.80
27567;DHT22;15006;48.584;9.186;2022-09-09T00:37:28;10.50;91.90
27567;DHT22;15006;48.584;9.186;2022-09-09T00:40:01;10.60;92.00
27567;DHT22;15006;48.584;9.186;2022-09-09T00:42:40;10.60;92.00
27567;DHT22;15006;48.584;9.186;2022-09-09T00:45:51;10.70;91.90
27567;DHT22;15006;48.584;9.186;2022-09-09T00:51:46;10.70;91.70
27567;DHT22;15006;48.584;9.186;2022-09-09T00:57:49;10.80;91.40
27567;DHT22;15006;48.584;9.186;2022-09-09T01:06:42;10.80;91.30
27567;DHT22;15006;48.584;9.186;2022-09-09T01:09:18;10.70;91.40
27567;DHT22;15006;48.584;9.186;2022-09-09T01:20:31;10.70;91.20
27567;DHT22;15006;48.584;9.186;2022-09-09T01:23:51;10.70;91.20
27567;DHT22;15006;48.584;9.186;2022-09-09T01:26:30;10.70;90.90
27567;DHT22;15006;48.584;9.186;2022-09-09T01:28:58;10.60;91.00
27567;DHT22;15006;48.584;9.186;2022-09-09T01:31:35;10.60;91.10
27567;DHT22;15006;48.584;9.186;2022-09-09T01:34:15;10.50;90.90
27567;DHT22;15006;48.584;9.186;2022-09-09T01:36:46;10.60;90.90
27567;DHT22;15006;48.584;9.186;2022-09-09T01:39:19;10.50;91.00
27567;DHT22;15006;48.584;9.186;2022-09-09T01:41:45;10.50;91.00
27567;DHT22;15006;48.584;9.186;2022-09-09T01:44:12;10.40;91.00
27567;DHT22;15006;48.584;9.186;2022-09-09T01:46:38;10.40;91.10
27567;DHT22;15006;48.584;9.186;2022-09-09T01:49:06;10.40;91.10
27567;DHT22;15006;48.584;9.186;2022-09-09T01:51:35;10.30;91.00
27567;DHT22;15006;48.584;9.186;2022-09-09T01:54:02;10.30;91.00
27567;DHT22;15006;48.584;9.186;2022-09-09T01:57:00;10.30;91.20
27567;DHT22;15006;48.584;9.186;2022-09-09T02:05:18;10.20;91.40
27567;DHT22;15006;48.584;9.186;2022-09-09T02:07:53;10.20;91.60
27567;DHT22;15006;48.584;9.186;2022-09-09T02:10:50;10.20;91.70
27567;DHT22;15006;48.584;9.186;2022-09-09T02:13:21;10.20;91.80
27567;DHT22;15006;48.584;9.186;2022-09-09T02:21:03;10.40;92.40
27567;DHT22;15006;48.584;9.186;2022-09-09T02:23:30;10.40;92.60
27567;DHT22;15006;48.584;9.186;2022-09-09T02:25:58;10.50;92.50
27567;DHT22;15006;48.584;9.186;2022-09-09T02:28:26;10.50;92.30
27567;DHT22;15006;48.584;9.186;2022-09-09T02:30:54;10.50;92.20
27567;DHT22;15006;48.584;9.186;2022-09-09T02:33:28;10.60;92.30
27567;DHT22;15006;48.584;9.186;2022-09-09T02:36:01;10.60;92.40
27567;DHT22;15006;48.584;9.186;2022-09-09T02:38:33;10.70;92.40
27567;DHT22;15006;48.584;9.186;2022-09-09T02:41:02;10.70;92.20
27567;DHT22;15006;48.584;9.186;2022-09-09T02:43:34;10.70;92.10
27567;DHT22;15006;48.584;9.186;2022-09-09T02:48:52;10.80;92.00
27567;DHT22;15006;48.584;9.186;2022-09-09T02:54:34;10.90;91.30
27567;DHT22;15006;48.584;9.186;2022-09-09T02:57:25;10.90;91.20
27567;DHT22;15006;48.584;9.186;2022-09-09T02:59:53;10.90;91.20
27567;DHT22;15006;48.584;9.186;2022-09-09T03:02:22;10.90;91.70
27567;DHT22;15006;48.584;9.186;2022-09-09T03:04:48;11.00;91.80
27567;DHT22;15006;48.584;9.186;2022-09-09T03:07:20;11.00;91.70
27567;DHT22;15006;48.584;9.186;2022-09-09T03:09:47;11.00;91.50
27567;DHT22;15006;48.584;9.186;2022-09-09T03:12:13;11.10;91.60
27567;DHT22;15006;48.584;9.186;2022-09-09T03:14:39;11.10;91.60
27567;DHT22;15006;48.584;9.186;2022-09-09T03:17:05;11.10;91.30
27567;DHT22;15006;48.584;9.186;2022-09-09T03:19:31;11.10;91.20
27567;DHT22;15006;48.584;9.186;2022-09-09T03:21:58;11.10;91.10
27567;DHT22;15006;48.584;9.186;2022-09-09T03:24:24;11.00;91.00
27567;DHT22;15006;48.584;9.186;2022-09-09T03:26:50;11.00;91.10
27567;DHT22;15006;48.584;9.186;2022-09-09T03:29:17;11.00;91.20
27567;DHT22;15006;48.584;9.186;2022-09-09T03:31:44;10.90;91.20
27567;DHT22;15006;48.584;9.186;2022-09-09T03:34:10;10.90;91.30
27567;DHT22;15006;48.584;9.186;2022-09-09T03:36:36;10.90;91.40
27567;DHT22;15006;48.584;9.186;2022-09-09T03:39:03;10.80;91.60
27567;DHT22;15006;48.584;9.186;2022-09-09T03:41:30;10.80;91.80
27567;DHT22;15006;48.584;9.186;2022-09-09T03:43:56;10.80;92.00
27567;DHT22;15006;48.584;9.186;2022-09-09T03:46:24;10.70;92.00
27567;DHT22;15006;48.584;9.186;2022-09-09T03:48:51;10.70;92.00
27567;DHT22;15006;48.584;9.186;2022-09-09T03:51:20;10.70;92.20
27567;DHT22;15006;48.584;9.186;2022-09-09T03:53:47;10.70;92.40
27567;DHT22;15006;48.584;9.186;2022-09-09T03:56:13;10.70;92.60
27567;DHT22;15006;48.584;9.186;2022-09-09T03:58:39;10.70;92.80
27567;DHT22;15006;48.584;9.186;2022-09-09T04:01:08;10.80;92.80
27567;DHT22;15006;48.584;9.186;2022-09-09T04:03:36;10.80;92.80
27567;DHT22;15006;48.584;9.186;2022-09-09T04:06:03;10.80;92.80
27567;DHT22;15006;48.584;9.186;2022-09-09T04:08:31;10.80;92.70
27567;DHT22;15006;48.584;9.186;2022-09-09T04:10:57;10.90;92.70
27567;DHT22;15006;48.584;9.186;2022-09-09T04:13:24;10.90;92.70
27567;DHT22;15006;48.584;9.186;2022-09-09T04:15:55;10.90;92.60
27567;DHT22;15006;48.584;9.186;2022-09-09T04:18:24;10.90;92.40
27567;DHT22;15006;48.584;9.186;2022-09-09T04:20:52;10.90;92.40
27567;DHT22;15006;48.584;9.186;2022-09-09T04:23:19;10.90;92.20
27567;DHT22;15006;48.584;9.186;2022-09-09T04:25:50;10.90;92.10
27567;DHT22;15006;48.584;9.186;2022-09-09T04:28:19;10.80;91.90
27567;DHT22;15006;48.584;9.186;2022-09-09T04:30:46;10.80;91.80
27567;DHT22;15006;48.584;9.186;2022-09-09T04:33:13;10.80;91.90
27567;DHT22;15006;48.584;9.186;2022-09-09T04:35:48;10.70;92.10
27567;DHT22;15006;48.584;9.186;2022-09-09T04:38:16;10.70;92.20
27567;DHT22;15006;48.584;9.186;2022-09-09T04:40:50;10.80;92.50
27567;DHT22;15006;48.584;9.186;2022-09-09T04:43:17;10.70;92.50
27567;DHT22;15006;48.584;9.186;2022-09-09T04:45:47;10.80;92.90
27567;DHT22;15006;48.584;9.186;2022-09-09T04:48:14;10.80;93.00
27567;DHT22;15006;48.584;9.186;2022-09-09T04:50:40;10.90;93.30
27567;DHT22;15006;48.584;9.186;2022-09-09T04:53:06;10.90;93.40
27567;DHT22;15006;48.584;9.186;2022-09-09T04:55:33;11.00;93.40
27567;DHT22;15006;48.584;9.186;2022-09-09T04:58:07;11.00;93.30
27567;DHT22;15006;48.584;9.186;2022-09-09T05:00:37;11.00;93.20
27567;DHT22;15006;48.584;9.186;2022-09-09T05:03:04;11.00;93.00
27567;DHT22;15006;48.584;9.186;2022-09-09T05:05:32;11.00;93.00
27567;DHT22;15006;48.584;9.186;2022-09-09T05:08:03;11.00;93.00
27567;DHT22;15006;48.584;9.186;2022-09-09T05:10:31;11.00;92.90
27567;DHT22;15006;48.584;9.186;2022-09-09T05:12:58;11.00;93.00
27567;DHT22;15006;48.584;9.186;2022-09-09T05:15:24;11.00;93.00
27567;DHT22;15006;48.584;9.186;2022-09-09T05:17:50;11.00;92.90
27567;DHT22;15006;48.584;9.186;2022-09-09T05:20:18;11.00;93.00
27567;DHT22;15006;48.584;9.186;2022-09-09T05:22:44;11.00;93.10
27567;DHT22;15006;48.584;9.186;2022-09-09T05:25:10;11.00;93.70
27567;DHT22;15006;48.584;9.186;2022-09-09T05:27:36;11.00;93.60
27567;DHT22;15006;48.584;9.186;2022-09-09T05:30:03;11.00;93.90
27567;DHT22;15006;48.584;9.186;2022-09-09T05:32:30;11.00;94.20
27567;DHT22;15006;48.584;9.186;2022-09-09T05:34:59;11.00;94.60
27567;DHT22;15006;48.584;9.186;2022-09-09T05:37:27;11.10;95.30
27567;DHT22;15006;48.584;9.186;2022-09-09T05:39:53;11.10;95.20
27567;DHT22;15006;48.584;9.186;2022-09-09T05:42:19;11.20;95.40
27567;DHT22;15006;48.584;9.186;2022-09-09T05:44:45;11.20;95.50
27567;DHT22;15006;48.584;9.186;2022-09-09T05:47:11;11.30;95.50
27567;DHT22;15006;48.584;9.186;2022-09-09T05:49:37;11.40;95.30
27567;DHT22;15006;48.584;9.186;2022-09-09T05:52:03;11.50;95.30
27567;DHT22;15006;48.584;9.186;2022-09-09T05:54:29;11.50;95.20
27567;DHT22;15006;48.584;9.186;2022-09-09T05:56:56;11.60;95.10
27567;DHT22;15006;48.584;9.186;2022-09-09T05:59:22;11.60;94.90
27567;DHT22;15006;48.584;9.186;2022-09-09T06:01:49;11.70;95.10
27567;DHT22;15006;48.584;9.186;2022-09-09T06:04:15;11.80;95.00
27567;DHT22;15006;48.584;9.186;2022-09-09T06:06:41;11.90;95.10
27567;DHT22;15006;48.584;9.186;2022-09-09T06:09:08;12.00;95.10
27567;DHT22;15006;48.584;9.186;2022-09-09T06:11:38;12.00;95.00
27567;DHT22;15006;48.584;9.186;2022-09-09T06:14:05;12.10;94.90
27567;DHT22;15006;48.584;9.186;2022-09-09T06:16:32;12.10;94.70
27567;DHT22;15006;48.584;9.186;2022-09-09T06:18:58;12.20;94.60
27567;DHT22;15006;48.584;9.186;2022-09-09T06:21:33;12.30;94.30
27567;DHT22;15006;48.584;9.186;2022-09-09T06:24:03;12.30;93.90
27567;DHT22;15006;48.584;9.186;2022-09-09T06:26:36;12.30;93.90
27567;DHT22;15006;48.584;9.186;2022-09-09T06:29:06;12.40;93.80
27567;DHT22;15006;48.584;9.186;2022-09-09T06:31:34;12.50;94.10
27567;DHT22;15006;48.584;9.186;2022-09-09T06:34:05;12.50;93.90
27567;DHT22;15006;48.584;9.186;2022-09-09T06:36:34;12.60;93.80
27567;DHT22;15006;48.584;9.186;2022-09-09T06:39:03;12.60;93.70
27567;DHT22;15006;48.584;9.186;2022-09-09T06:41:31;12.70;93.60
27567;DHT22;15006;48.584;9.186;2022-09-09T06:43:58;12.80;93.60
27567;DHT22;15006;48.584;9.186;2022-09-09T06:46:28;12.80;93.60
27567;DHT22;15006;48.584;9.186;2022-09-09T06:48:57;12.90;93.40
27567;DHT22;15006;48.584;9.186;2022-09-09T06:51:28;13.00;93.70
27567;DHT22;15006;48.584;9.186;2022-09-09T06:53:55;13.10;93.70
27567;DHT22;15006;48.584;9.186;2022-09-09T06:56:37;13.20;92.40
27567;DHT22;15006;48.584;9.186;2022-09-09T06:59:07;13.30;93.10
27567;DHT22;15006;48.584;9.186;2022-09-09T07:01:39;13.40;93.10
27567;DHT22;15006;48.584;9.186;2022-09-09T07:04:06;13.40;92.70
27567;DHT22;15006;48.584;9.186;2022-09-09T07:06:35;13.50;93.40
27567;DHT22;15006;48.584;9.186;2022-09-09T07:09:05;13.60;92.90
27567;DHT22;15006;48.584;9.186;2022-09-09T07:11:36;13.70;92.50
27567;DHT22;15006;48.584;9.186;2022-09-09T07:14:04;13.80;90.80
27567;DHT22;15006;48.584;9.186;2022-09-09T07:16:30;13.90;91.40
27567;DHT22;15006;48.584;9.186;2022-09-09T07:18:58;14.10;91.40
27567;DHT22;15006;48.584;9.186;2022-09-09T07:21:27;14.10;91.00
27567;DHT22;15006;48.584;9.186;2022-09-09T07:23:55;14.20;90.50
27567;DHT22;15006;48.584;9.186;2022-09-09T07:26:24;14.30;90.10
27567;DHT22;15006;48.584;9.186;2022-09-09T07:28:51;14.40;90.00
27567;DHT22;15006;48.584;9.186;2022-09-09T07:31:28;14.50;90.40
27567;DHT22;15006;48.584;9.186;2022-09-09T07:33:56;14.60;89.40
27567;DHT22;15006;48.584;9.186;2022-09-09T07:36:25;14.60;88.90
27567;DHT22;15006;48.584;9.186;2022-09-09T07:38:58;14.70;87.40
27567;DHT22;15006;48.584;9.186;2022-09-09T07:44:18;14.80;84.50
27567;DHT22;15006;48.584;9.186;2022-09-09T07:46:47;14.80;84.40
27567;DHT22;15006;48.584;9.186;2022-09-09T07:49:14;14.90;87.30
27567;DHT22;15006;48.584;9.186;2022-09-09T07:51:43;15.00;86.00
27567;DHT22;15006;48.584;9.186;2022-09-09T07:54:12;15.10;85.50
27567;DHT22;15006;48.584;9.186;2022-09-09T07:56:41;15.10;85.10
27567;DHT22;15006;48.584;9.186;2022-09-09T07:59:08;15.20;85.10
27567;DHT22;15006;48.584;9.186;2022-09-09T08:01:38;15.20;84.40
27567;DHT22;15006;48.584;9.186;2022-09-09T08:04:11;15.30;83.60
27567;DHT22;15006;48.584;9.186;2022-09-09T08:06:44;15.30;82.20
27567;DHT22;15006;48.584;9.186;2022-09-09T08:09:21;15.40;82.40
27567;DHT22;15006;48.584;9.186;2022-09-09T08:11:50;15.40;82.50
27567;DHT22;15006;48.584;9.186;2022-09-09T08:14:17;15.50;84.40
27567;DHT22;15006;48.584;9.186;2022-09-09T08:16:45;15.50;82.00
27567;DHT22;15006;48.584;9.186;2022-09-09T08:19:13;15.60;81.00
27567;DHT22;15006;48.584;9.186;2022-09-09T08:21:42;15.60;80.60
27567;DHT22;15006;48.584;9.186;2022-09-09T08:24:10;15.60;79.60
27567;DHT22;15006;48.584;9.186;2022-09-09T08:26:41;15.70;79.60
27567;DHT22;15006;48.584;9.186;2022-09-09T08:29:10;15.60;80.40
27567;DHT22;15006;48.584;9.186;2022-09-09T08:31:46;15.70;80.90
27567;DHT22;15006;48.584;9.186;2022-09-09T08:34:14;15.70;81.70
27567;DHT22;15006;48.584;9.186;2022-09-09T08:36:42;15.90;82.30
27567;DHT22;15006;48.584;9.186;2022-09-09T08:39:11;16.10;80.90
27567;DHT22;15006;48.584;9.186;2022-09-09T08:41:56;16.30;80.00
27567;DHT22;15006;48.584;9.186;2022-09-09T08:47:29;16.60;79.20
27567;DHT22;15006;48.584;9.186;2022-09-09T08:50:25;16.80;76.30
27567;DHT22;15006;48.584;9.186;2022-09-09T08:53:20;17.00;73.20
27567;DHT22;15006;48.584;9.186;2022-09-09T08:55:59;17.30;76.00
27567;DHT22;15006;48.584;9.186;2022-09-09T08:58:31;17.50;76.10
27567;DHT22;15006;48.584;9.186;2022-09-09T09:12:43;17.70;70.90
27567;DHT22;15006;48.584;9.186;2022-09-09T09:15:23;17.70;72.50
27567;DHT22;15006;48.584;9.186;2022-09-09T09:17:52;17.80;71.30
27567;DHT22;15006;48.584;9.186;2022-09-09T09:20:27;18.00;74.10
27567;DHT22;15006;48.584;9.186;2022-09-09T09:23:04;18.10;72.20
27567;DHT22;15006;48.584;9.186;2022-09-09T09:25:35;18.50;73.70
27567;DHT22;15006;48.584;9.186;2022-09-09T09:28:16;18.70;69.50
27567;DHT22;15006;48.584;9.186;2022-09-09T09:33:47;19.30;66.70
27567;DHT22;15006;48.584;9.186;2022-09-09T09:36:19;19.60;65.10
27567;DHT22;15006;48.584;9.186;2022-09-09T09:38:56;19.90;68.70
27567;DHT22;15006;48.584;9.186;2022-09-09T09:41:32;20.10;63.50
27567;DHT22;15006;48.584;9.186;2022-09-09T09:44:00;20.30;64.20
27567;DHT22;15006;48.584;9.186;2022-09-09T09:46:27;20.50;64.60
27567;DHT22;15006;48.584;9.186;2022-09-09T09:49:04;20.70;63.20
27567;DHT22;15006;48.584;9.186;2022-09-09T09:51:32;20.80;58.00
27567;DHT22;15006;48.584;9.186;2022-09-09T09:56:45;21.00;57.50
27567;DHT22;15006;48.584;9.186;2022-09-09T09:59:34;21.20;58.60
27567;DHT22;15006;48.584;9.186;2022-09-09T10:04:44;21.20;55.40
27567;DHT22;15006;48.584;9.186;2022-09-09T10:07:22;21.20;57.60
27567;DHT22;15006;48.584;9.186;2022-09-09T10:10:02;21.30;56.80
27567;DHT22;15006;48.584;9.186;2022-09-09T10:15:50;21.50;54.50
27567;DHT22;15006;48.584;9.186;2022-09-09T10:18:47;21.70;54.40
27567;DHT22;15006;48.584;9.186;2022-09-09T10:21:46;21.80;53.30
27567;DHT22;15006;48.584;9.186;2022-09-09T10:24:42;21.90;52.90
27567;DHT22;15006;48.584;9.186;2022-09-09T10:30:40;21.80;52.50
27567;DHT22;15006;48.584;9.186;2022-09-09T10:33:31;21.90;51.90
27567;DHT22;15006;48.584;9.186;2022-09-09T10:36:24;22.00;52.00
27567;DHT22;15006;48.584;9.186;2022-09-09T10:42:12;22.30;51.20
27567;DHT22;15006;48.584;9.186;2022-09-09T10:50:46;22.40;49.80
27567;DHT22;15006;48.584;9.186;2022-09-09T10:53:28;22.40;49.10
27567;DHT22;15006;48.584;9.186;2022-09-09T10:56:10;22.30;50.70
27567;DHT22;15006;48.584;9.186;2022-09-09T11:01:25;22.40;48.50
27567;DHT22;15006;48.584;9.186;2022-09-09T11:04:24;22.30;50.00
27567;DHT22;15006;48.584;9.186;2022-09-09T11:07:05;22.30;49.10
27567;DHT22;15006;48.584;9.186;2022-09-09T11:09:40;22.30;50.90
27567;DHT22;15006;48.584;9.186;2022-09-09T11:12:18;22.40;50.90
27567;DHT22;15006;48.584;9.186;2022-09-09T11:14:49;22.60;48.40
27567;DHT22;15006;48.584;9.186;2022-09-09T11:17:23;22.80;50.60
27567;DHT22;15006;48.584;9.186;2022-09-09T11:19:53;22.90;48.30
27567;DHT22;15006;48.584;9.186;2022-09-09T11:22:43;23.00;47.40
27567;DHT22;15006;48.584;9.186;2022-09-09T11:25:39;22.70;46.20
27567;DHT22;15006;48.584;9.186;2022-09-09T11:28:24;22.30;45.70
27567;DHT22;15006;48.584;9.186;2022-09-09T11:31:10;21.80;47.30
27567;DHT22;15006;48.584;9.186;2022-09-09T11:39:44;20.10;52.00
27567;DHT22;15006;48.584;9.186;2022-09-09T11:42:33;19.60;52.50
27567;DHT22;15006;48.584;9.186;2022-09-09T11:45:10;19.30;54.10
27567;DHT22;15006;48.584;9.186;2022-09-09T11:47:52;19.10;55.10
27567;DHT22;15006;48.584;9.186;2022-09-09T11:52:46;18.80;55.40
27567;DHT22;15006;48.584;9.186;2022-09-09T11:55:29;18.80;56.60
27567;DHT22;15006;48.584;9.186;2022-09-09T11:58:00;18.90;57.10
27567;DHT22;15006;48.584;9.186;2022-09-09T12:00:39;19.20;58.90
27567;DHT22;15006;48.584;9.186;2022-09-09T12:03:40;19.60;54.80
27567;DHT22;15006;48.584;9.186;2022-09-09T12:06:19;20.10;53.30
27567;DHT22;15006;48.584;9.186;2022-09-09T12:08:57;20.60;52.50
27567;DHT22;15006;48.584;9.186;2022-09-09T12:11:30;21.00;52.60
27567;DHT22;15006;48.584;9.186;2022-09-09T12:13:58;21.40;53.20
27567;DHT22;15006;48.584;9.186;2022-09-09T12:16:35;21.70;49.70
27567;DHT22;15006;48.584;9.186;2022-09-09T12:19:07;21.90;49.60
27567;DHT22;15006;48.584;9.186;2022-09-09T12:21:58;22.10;49.30
27567;DHT22;15006;48.584;9.186;2022-09-09T12:24:41;22.30;49.70
27567;DHT22;15006;48.584;9.186;2022-09-09T12:27:22;22.50;49.30
27567;DHT22;15006;48.584;9.186;2022-09-09T12:30:03;22.90;47.80
27567;DHT22;15006;48.584;9.186;2022-09-09T12:32:35;23.10;46.00
27567;DHT22;15006;48.584;9.186;2022-09-09T12:35:09;23.30;46.90
27567;DHT22;15006;48.584;9.186;2022-09-09T12:37:45;23.40;44.40
27567;DHT22;15006;48.584;9.186;2022-09-09T12:42:53;23.40;46.60
27567;DHT22;15006;48.584;9.186;2022-09-09T12:45:24;23.40;46.70
27567;DHT22;15006;48.584;9.186;2022-09-09T12:47:55;23.50;45.60
27567;DHT22;15006;48.584;9.186;2022-09-09T12:50:30;23.50;45.00
27567;DHT22;15006;48.584;9.186;2022-09-09T12:53:07;23.40;45.60
27567;DHT22;15006;48.584;9.186;2022-09-09T12:55:57;23.30;44.90
27567;DHT22;15006;48.584;9.186;2022-09-09T12:58:26;23.30;43.50
27567;DHT22;15006;48.584;9.186;2022-09-09T13:00:55;23.20;45.00
27567;DHT22;15006;48.584;9.186;2022-09-09T13:03:23;23.10;44.10
27567;DHT22;15006;48.584;9.186;2022-09-09T13:05:54;22.90;44.40
27567;DHT22;15006;48.584;9.186;2022-09-09T13:08:25;22.60;44.40
27567;DHT22;15006;48.584;9.186;2022-09-09T13:11:06;22.30;44.90
27567;DHT22;15006;48.584;9.186;2022-09-09T13:13:38;21.80;44.30
27567;DHT22;15006;48.584;9.186;2022-09-09T13:16:22;21.50;45.60
27567;DHT22;15006;48.584;9.186;2022-09-09T13:18:51;21.30;46.50
27567;DHT22;15006;48.584;9.186;2022-09-09T13:21:18;21.10;47.80
27567;DHT22;15006;48.584;9.186;2022-09-09T13:23:49;21.10;50.30
27567;DHT22;15006;48.584;9.186;2022-09-09T13:26:26;21.20;48.90
27567;DHT22;15006;48.584;9.186;2022-09-09T13:28:54;21.40;50.40
27567;DHT22;15006;48.584;9.186;2022-09-09T13:33:52;22.00;48.70
27567;DHT22;15006;48.584;9.186;2022-09-09T13:36:31;22.30;47.70
27567;DHT22;15006;48.584;9.186;2022-09-09T13:39:03;22.40;47.80
27567;DHT22;15006;48.584;9.186;2022-09-09T13:41:36;22.60;47.90
27567;DHT22;15006;48.584;9.186;2022-09-09T13:44:34;22.80;46.30
27567;DHT22;15006;48.584;9.186;2022-09-09T13:47:05;22.90;46.50
27567;DHT22;15006;48.584;9.186;2022-09-09T13:49:44;23.00;46.50
27567;DHT22;15006;48.584;9.186;2022-09-09T13:52:13;22.90;45.30
27567;DHT22;15006;48.584;9.186;2022-09-09T13:54:51;22.70;44.20
27567;DHT22;15006;48.584;9.186;2022-09-09T13:57:25;22.60;45.50
27567;DHT22;15006;48.584;9.186;2022-09-09T14:00:01;22.60;45.00
27567;DHT22;15006;48.584;9.186;2022-09-09T14:02:32;22.70;45.70
27567;DHT22;15006;48.584;9.186;2022-09-09T14:04:59;22.70;45.80
27567;DHT22;15006;48.584;9.186;2022-09-09T14:07:25;22.80;45.40
27567;DHT22;15006;48.584;9.186;2022-09-09T14:09:54;22.90;46.40
27567;DHT22;15006;48.584;9.186;2022-09-09T14:12:21;23.10;45.30
27567;DHT22;15006;48.584;9.186;2022-09-09T14:14:47;23.30;45.70
27567;DHT22;15006;48.584;9.186;2022-09-09T14:17:13;23.40;44.50
27567;DHT22;15006;48.584;9.186;2022-09-09T14:19:40;23.60;45.00
27567;DHT22;15006;48.584;9.186;2022-09-09T14:22:06;23.70;42.50
27567;DHT22;15006;48.584;9.186;2022-09-09T14:24:32;23.60;42.90
27567;DHT22;15006;48.584;9.186;2022-09-09T14:26:59;23.60;43.40
27567;DHT22;15006;48.584;9.186;2022-09-09T14:29:28;23.60;42.80
27567;DHT22;15006;48.584;9.186;2022-09-09T14:31:54;23.60;42.20
27567;DHT22;15006;48.584;9.186;2022-09-09T14:34:20;23.50;43.10
27567;DHT22;15006;48.584;9.186;2022-09-09T14:36:46;23.50;42.90
27567;DHT22;15006;48.584;9.186;2022-09-09T14:39:13;23.40;42.80
27567;DHT22;15006;48.584;9.186;2022-09-09T14:41:41;23.30;42.20
27567;DHT22;15006;48.584;9.186;2022-09-09T14:44:07;23.20;43.40
27567;DHT22;15006;48.584;9.186;2022-09-09T14:46:39;23.00;43.80
27567;DHT22;15006;48.584;9.186;2022-09-09T14:49:05;22.90;42.50
27567;DHT22;15006;48.584;9.186;2022-09-09T14:51:31;22.60;42.50
27567;DHT22;15006;48.584;9.186;2022-09-09T14:53:58;22.40;42.40
27567;DHT22;15006;48.584;9.186;2022-09-09T14:56:27;22.10;43.30
27567;DHT22;15006;48.584;9.186;2022-09-09T14:58:56;22.00;43.30
27567;DHT22;15006;48.584;9.186;2022-09-09T15:01:24;21.80;44.20
27567;DHT22;15006;48.584;9.186;2022-09-09T15:03:55;21.60;43.70
27567;DHT22;15006;48.584;9.186;2022-09-09T15:06:24;21.60;44.30
27567;DHT22;15006;48.584;9.186;2022-09-09T15:08:53;21.60;44.10
27567;DHT22;15006;48.584;9.186;2022-09-09T15:11:22;21.70;44.30
27567;DHT22;15006;48.584;9.186;2022-09-09T15:13:51;21.80;42.10
27567;DHT22;15006;48.584;9.186;2022-09-09T15:16:23;22.00;43.70
27567;DHT22;15006;48.584;9.186;2022-09-09T15:18:52;22.10;42.70
27567;DHT22;15006;48.584;9.186;2022-09-09T15:21:24;22.00;43.00
27567;DHT22;15006;48.584;9.186;2022-09-09T15:23:57;22.10;43.00
27567;DHT22;15006;48.584;9.186;2022-09-09T15:26:25;22.10;43.20
27567;DHT22;15006;48.584;9.186;2022-09-09T15:28:53;22.10;43.80
27567;DHT22;15006;48.584;9.186;2022-09-09T15:31:28;22.10;42.10
27567;DHT22;15006;48.584;9.186;2022-09-09T15:33:58;22.10;41.50
27567;DHT22;15006;48.584;9.186;2022-09-09T15:36:33;21.90;40.90
27567;DHT22;15006;48.584;9.186;2022-09-09T15:39:02;21.60;41.20
27567;DHT22;15006;48.584;9.186;2022-09-09T15:41:32;21.20;41.30
27567;DHT22;15006;48.584;9.186;2022-09-09T15:44:05;20.90;42.90
27567;DHT22;15006;48.584;9.186;2022-09-09T15:46:35;20.50;42.80
27567;DHT22;15006;48.584;9.186;2022-09-09T15:51:38;19.90;44.50
27567;DHT22;15006;48.584;9.186;2022-09-09T15:59:28;19.20;46.10
27567;DHT22;15006;48.584;9.186;2022-09-09T16:01:55;18.90;48.40
27567;DHT22;15006;48.584;9.186;2022-09-09T16:10:39;18.80;47.40
27567;DHT22;15006;48.584;9.186;2022-09-09T16:13:05;18.80;47.90
27567;DHT22;15006;48.584;9.186;2022-09-09T16:26:46;18.70;44.70
27567;DHT22;15006;48.584;9.186;2022-09-09T16:29:16;18.00;48.90
27567;DHT22;15006;48.584;9.186;2022-09-09T16:31:44;18.00;48.80
27567;DHT22;15006;48.584;9.186;2022-09-09T16:34:11;18.00;48.90
27567;DHT22;15006;48.584;9.186;2022-09-09T16:36:39;17.90;48.80
27567;DHT22;15006;48.584;9.186;2022-09-09T16:39:08;17.80;49.00
27567;DHT22;15006;48.584;9.186;2022-09-09T16:41:37;17.80;48.90
27567;DHT22;15006;48.584;9.186;2022-09-09T16:44:06;17.70;49.50
27567;DHT22;15006;48.584;9.186;2022-09-09T16:46:36;17.60;49.60
27567;DHT22;15006;48.584;9.186;2022-09-09T16:49:06;17.40;50.30
27567;DHT22;15006;48.584;9.186;2022-09-09T16:51:46;17.30;50.60
27567;DHT22;15006;48.584;9.186;2022-09-09T16:54:15;17.20;51.00
27567;DHT22;15006;48.584;9.186;2022-09-09T16:56:45;17.10;51.30
27567;DHT22;15006;48.584;9.186;2022-09-09T16:59:21;17.00;52.00
27567;DHT22;15006;48.584;9.186;2022-09-09T17:01:50;16.90;52.10
27567;DHT22;15006;48.584;9.186;2022-09-09T17:04:21;16.80;52.40
27567;DHT22;15006;48.584;9.186;2022-09-09T17:06:51;16.70;52.50
27567;DHT22;15006;48.584;9.186;2022-09-09T17:09:19;16.70;52.90
27567;DHT22;15006;48.584;9.186;2022-09-09T17:11:46;16.60;53.10
27567;DHT22;15006;48.584;9.186;2022-09-09T17:14:15;16.50;53.10
27567;DHT22;15006;48.584;9.186;2022-09-09T17:16:46;16.50;53.70
27567;DHT22;15006;48.584;9.186;2022-09-09T17:19:57;16.40;53.60
27567;DHT22;15006;48.584;9.186;2022-09-09T17:22:23;16.30;53.90
27567;DHT22;15006;48.584;9.186;2022-09-09T17:24:54;16.30;54.10
27567;DHT22;15006;48.584;9.186;2022-09-09T17:27:20;16.30;54.50
27567;DHT22;15006;48.584;9.186;2022-09-09T17:29:50;16.20;54.60
27567;DHT22;15006;48.584;9.186;2022-09-09T17:32:16;16.10;54.80
27567;DHT22;15006;48.584;9.186;2022-09-09T17:34:44;16.10;54.90
27567;DHT22;15006;48.584;9.186;2022-09-09T17:37:11;16.00;55.60
27567;DHT22;15006;48.584;9.186;2022-09-09T17:39:38;16.00;55.70
27567;DHT22;15006;48.584;9.186;2022-09-09T17:42:05;15.90;56.30
27567;DHT22;15006;48.584;9.186;2022-09-09T17:44:33;15.80;56.90
27567;DHT22;15006;48.584;9.186;2022-09-09T17:46:59;15.80;57.10
27567;DHT22;15006;48.584;9.186;2022-09-09T17:49:26;15.60;56.90
27567;DHT22;15006;48.584;9.186;2022-09-09T17:51:52;15.50;56.70
27567;DHT22;15006;48.584;9.186;2022-09-09T17:54:20;15.40;57.20
27567;DHT22;15006;48.584;9.186;2022-09-09T17:56:49;15.30;57.50
27567;DHT22;15006;48.584;9.186;2022-09-09T17:59:16;15.20;57.80
27567;DHT22;15006;48.584;9.186;2022-09-09T18:01:45;15.10;58.20
27567;DHT22;15006;48.584;9.186;2022-09-09T18:04:14;15.00;58.50
27567;DHT22;15006;48.584;9.186;2022-09-09T18:06:46;14.90;58.80
27567;DHT22;15006;48.584;9.186;2022-09-09T18:09:17;14.80;59.30
27567;DHT22;15006;48.584;9.186;2022-09-09T18:11:48;14.70;59.30
27567;DHT22;15006;48.584;9.186;2022-09-09T18:14:17;14.60;59.90
27567;DHT22;15006;48.584;9.186;2022-09-09T18:16:47;14.50;60.30
27567;DHT22;15006;48.584;9.186;2022-09-09T18:19:16;14.50;60.50